createdAt,value
2019-02-08T00:02:16.232Z,11.00
2019-02-08T00:04:56.990Z,11.03
2019-02-08T00:07:39.570Z,11.73
2019-02-08T00:10:20.224Z,12.10
2019-02-08T00:13:00.967Z,12.20
2019-02-08T00:15:43.750Z,12.00
2019-02-08T00:18:26.161Z,12.07
2019-02-08T00:21:08.460Z,11.90
2019-02-08T00:23:52.162Z,13.00
2019-02-08T00:26:33.970Z,11.33
2019-02-08T00:29:15.532Z,11.80
2019-02-08T00:31:56.140Z,12.07
2019-02-08T00:34:37.645Z,11.77
2019-02-08T00:37:18.161Z,11.80
2019-02-08T00:40:02.563Z,11.63
2019-02-08T00:42:43.484Z,12.17
2019-02-08T00:45:24.021Z,12.00
2019-02-08T00:48:04.943Z,13.13
2019-02-08T00:50:47.929Z,12.23
2019-02-08T00:53:33.364Z,12.20
2019-02-08T00:56:11.702Z,12.40
2019-02-08T00:58:52.282Z,12.30
2019-02-08T01:01:32.781Z,12.37
2019-02-08T01:04:13.335Z,11.07
2019-02-08T01:06:53.831Z,11.63
2019-02-08T01:09:35.911Z,11.57
2019-02-08T01:12:16.877Z,11.17
2019-02-08T01:14:58.088Z,11.10
2019-02-08T01:17:38.652Z,10.93
2019-02-08T01:20:19.546Z,10.70
2019-02-08T01:23:00.078Z,10.63
2019-02-08T01:25:40.912Z,10.40
2019-02-08T01:28:23.861Z,10.33
2019-02-08T01:31:06.462Z,9.87
2019-02-08T01:33:49.643Z,10.80
2019-02-08T01:36:32.100Z,9.23
2019-02-08T01:42:27.374Z,8.80
2019-02-08T01:45:12.220Z,8.20
2019-02-08T01:47:52.975Z,7.80
2019-02-08T01:50:36.338Z,8.47
2019-02-08T01:56:03.355Z,9.03
2019-02-08T01:58:46.087Z,7.47
2019-02-08T02:01:27.061Z,8.67
2019-02-08T02:04:08.063Z,8.30
2019-02-08T02:06:48.766Z,7.30
2019-02-08T02:09:29.927Z,7.50
2019-02-08T02:12:11.792Z,6.70
2019-02-08T02:14:52.903Z,6.53
2019-02-08T02:17:33.488Z,6.70
2019-02-08T02:20:13.850Z,5.70
2019-02-08T02:22:54.827Z,6.60
2019-02-08T02:25:35.790Z,6.00
2019-02-08T02:28:16.429Z,6.37
2019-02-08T02:30:57.204Z,8.03
2019-02-08T02:33:38.008Z,6.27
2019-02-08T02:36:20.380Z,5.80
2019-02-08T02:39:01.442Z,5.90
2019-02-08T02:41:41.947Z,5.90
2019-02-08T02:44:24.862Z,6.20
2019-02-08T02:47:05.399Z,6.47
2019-02-08T02:49:46.427Z,5.63
2019-02-08T02:52:27.564Z,6.30
2019-02-08T02:55:08.186Z,6.27
2019-02-08T02:57:48.796Z,5.40
2019-02-08T03:00:29.610Z,5.50
2019-02-08T03:03:10.400Z,5.30
2019-02-08T03:05:51.012Z,5.13
2019-02-08T03:08:31.570Z,5.67
2019-02-08T03:11:12.798Z,5.27
2019-02-08T03:13:55.109Z,5.30
2019-02-08T03:16:36.211Z,5.43
2019-02-08T03:19:17.644Z,5.30
2019-02-08T03:21:58.655Z,4.37
2019-02-08T03:24:38.849Z,5.07
2019-02-08T03:27:19.522Z,4.73
2019-02-08T03:30:00.017Z,4.47
2019-02-08T03:32:41.244Z,4.83
2019-02-08T03:35:24.359Z,4.77
2019-02-08T03:40:56.366Z,4.30
2019-02-08T03:43:38.445Z,4.17
2019-02-08T03:46:20.831Z,4.20
2019-02-08T03:49:03.083Z,4.70
2019-02-08T03:51:43.632Z,4.40
2019-02-08T03:54:24.300Z,4.90
2019-02-08T03:57:06.911Z,4.60
2019-02-08T03:59:47.801Z,4.20
2019-02-08T04:02:30.165Z,4.30
2019-02-08T04:07:55.137Z,4.20
2019-02-08T04:10:35.749Z,3.63
2019-02-08T04:13:16.512Z,3.37
2019-02-08T04:15:58.713Z,3.73
2019-02-08T04:18:39.837Z,3.60
2019-02-08T04:21:23.199Z,4.10
2019-02-08T04:24:05.261Z,3.70
2019-02-08T04:26:46.411Z,3.30
2019-02-08T04:29:27.369Z,3.53
2019-02-08T04:34:51.999Z,3.40
2019-02-08T04:37:34.283Z,3.73
2019-02-08T04:40:16.023Z,3.17
2019-02-08T04:42:57.094Z,4.03
2019-02-08T04:45:38.195Z,3.33
2019-02-08T04:48:18.978Z,3.20
2019-02-08T04:50:59.431Z,3.60
2019-02-08T04:53:40.861Z,3.33
2019-02-08T04:56:23.893Z,3.27
2019-02-08T04:59:06.163Z,3.10
2019-02-08T05:01:48.350Z,3.57
2019-02-08T05:04:29.078Z,3.30
2019-02-08T05:07:09.998Z,3.20
2019-02-08T05:09:52.678Z,3.60
2019-02-08T05:12:33.692Z,3.30
2019-02-08T05:15:14.452Z,3.20
2019-02-08T05:17:57.399Z,2.87
2019-02-08T05:20:40.102Z,3.50
2019-02-08T05:23:20.938Z,3.40
2019-02-08T05:26:03.147Z,3.00
2019-02-08T05:28:46.488Z,3.60
2019-02-08T05:31:29.445Z,3.13
2019-02-08T05:34:10.244Z,3.13
2019-02-08T05:36:52.871Z,3.10
2019-02-08T05:39:33.572Z,3.13
2019-02-08T05:42:14.241Z,4.30
2019-02-08T05:44:57.910Z,3.67
2019-02-08T05:47:39.139Z,3.80
2019-02-08T05:50:23.988Z,3.80
2019-02-08T05:53:04.506Z,3.70
2019-02-08T05:55:48.597Z,3.90
2019-02-08T05:58:32.243Z,3.23
2019-02-08T06:01:14.428Z,3.37
2019-02-08T06:03:57.413Z,3.73
2019-02-08T06:06:37.858Z,3.67
2019-02-08T06:09:21.532Z,3.30
2019-02-08T06:14:50.651Z,3.43
2019-02-08T06:20:16.828Z,3.63
2019-02-08T06:22:57.708Z,3.87
2019-02-08T06:25:41.509Z,3.43
2019-02-08T06:28:21.760Z,3.30
2019-02-08T06:31:02.673Z,3.40
2019-02-08T06:33:43.339Z,3.47
2019-02-08T06:36:24.035Z,3.20
2019-02-08T06:39:04.674Z,3.17
2019-02-08T06:44:29.293Z,3.00
2019-02-08T06:47:11.822Z,4.10
2019-02-08T06:52:47.333Z,3.20
2019-02-08T06:55:29.774Z,3.47
2019-02-08T07:01:17.594Z,3.23
2019-02-08T07:06:50.714Z,3.33
2019-02-08T07:09:35.574Z,3.67
2019-02-08T07:15:25.106Z,3.93
2019-02-08T07:18:12.738Z,3.30
2019-02-08T07:21:34.139Z,3.33
2019-02-08T07:24:43.008Z,3.40
2019-02-08T07:31:05.020Z,3.63
2019-02-08T07:34:12.215Z,3.40
2019-02-08T07:40:31.624Z,3.43
2019-02-08T07:43:26.133Z,3.57
2019-02-08T07:55:26.297Z,3.30
2019-02-08T08:01:05.264Z,4.50
2019-02-08T08:03:48.313Z,3.17
2019-02-08T08:06:32.532Z,3.40
2019-02-08T08:12:01.243Z,3.20
2019-02-08T08:17:46.639Z,3.33
2019-02-08T08:23:42.025Z,3.27
2019-02-08T08:26:24.141Z,3.40
2019-02-08T08:29:09.188Z,3.07
2019-02-08T08:31:53.994Z,2.97
2019-02-08T08:34:35.457Z,3.27
2019-02-08T08:37:16.130Z,3.10
2019-02-08T08:39:56.741Z,2.70
2019-02-08T08:42:40.247Z,3.40
2019-02-08T08:48:11.600Z,2.80
2019-02-08T08:50:52.282Z,2.60
2019-02-08T08:53:35.692Z,2.47
2019-02-08T08:56:15.726Z,2.60
2019-02-08T08:58:56.319Z,2.40
2019-02-08T09:01:37.002Z,2.33
2019-02-08T09:04:18.652Z,3.00
2019-02-08T09:07:01.071Z,2.50
2019-02-08T09:09:41.987Z,2.17
2019-02-08T09:12:25.102Z,2.50
2019-02-08T09:17:55.203Z,1.97
2019-02-08T09:20:36.524Z,2.37
2019-02-08T09:23:19.167Z,2.63
2019-02-08T09:26:00.424Z,2.40
2019-02-08T09:28:43.818Z,2.33
2019-02-08T09:31:25.389Z,2.47
2019-02-08T09:34:07.733Z,2.20
2019-02-08T09:36:48.896Z,2.43
2019-02-08T09:39:32.691Z,2.50
2019-02-08T09:42:14.991Z,2.70
2019-02-08T09:44:56.182Z,2.00
2019-02-08T09:47:36.564Z,2.27
2019-02-08T09:50:17.466Z,2.73
2019-02-08T09:52:59.456Z,2.33
2019-02-08T09:58:25.023Z,2.23
2019-02-08T10:01:05.630Z,2.33
2019-02-08T10:03:46.549Z,2.57
2019-02-08T10:06:27.494Z,2.80
2019-02-08T10:09:08.167Z,2.00
2019-02-08T10:11:48.843Z,2.47
2019-02-08T10:14:55.961Z,2.30
2019-02-08T10:18:04.462Z,2.13
2019-02-08T10:21:12.660Z,2.10
2019-02-08T10:24:35.680Z,1.97
2019-02-08T10:27:30.276Z,2.47
2019-02-08T10:33:54.168Z,1.90
2019-02-08T10:39:52.035Z,1.93
2019-02-08T10:48:40.355Z,1.90
2019-02-08T10:51:48.783Z,2.77
2019-02-08T10:54:57.156Z,2.07
2019-02-08T10:58:04.274Z,2.77
2019-02-08T11:01:12.564Z,2.57
2019-02-08T11:06:45.069Z,2.10
2019-02-08T11:09:26.611Z,2.30
2019-02-08T11:12:07.476Z,1.90
2019-02-08T11:17:40.583Z,2.23
2019-02-08T11:20:21.415Z,2.30
2019-02-08T11:23:03.969Z,2.23
2019-02-08T11:28:32.011Z,2.30
2019-02-08T11:31:12.993Z,2.10
2019-02-08T11:33:55.514Z,2.10
2019-02-08T11:36:36.420Z,2.57
2019-02-08T11:39:17.011Z,2.07
2019-02-08T11:41:59.168Z,2.40
2019-02-08T11:44:42.918Z,1.90
2019-02-08T11:50:07.956Z,2.20
2019-02-08T11:58:23.002Z,3.00
2019-02-08T12:01:04.135Z,1.93
2019-02-08T12:03:45.610Z,1.83
2019-02-08T12:06:26.336Z,2.10
2019-02-08T12:14:42.514Z,2.00
2019-02-08T12:17:23.165Z,1.87
2019-02-08T12:20:03.753Z,1.87
2019-02-08T12:22:44.231Z,2.70
2019-02-08T12:25:25.170Z,1.90
2019-02-08T12:28:05.597Z,2.03
2019-02-08T12:33:41.229Z,2.07
2019-02-08T12:36:21.764Z,2.20
2019-02-08T12:39:02.138Z,2.30
2019-02-08T12:44:40.904Z,2.37
2019-02-08T12:53:00.850Z,2.07
2019-02-08T12:55:41.588Z,2.70
2019-02-08T13:01:11.134Z,1.57
2019-02-08T13:03:51.938Z,1.80
2019-02-08T13:06:32.454Z,1.60
2019-02-08T13:17:47.560Z,1.67
2019-02-08T13:20:31.778Z,1.90
2019-02-08T13:23:12.427Z,1.77
2019-02-08T13:25:53.058Z,1.80
2019-02-08T13:31:20.075Z,1.83
2019-02-08T13:34:00.986Z,1.77
2019-02-08T13:36:41.551Z,1.90
2019-02-08T13:39:22.243Z,1.80
2019-02-08T13:42:07.430Z,1.60
2019-02-08T13:44:48.471Z,2.10
2019-02-08T13:47:30.538Z,1.60
2019-02-08T13:52:56.631Z,1.83
2019-02-08T13:58:26.151Z,2.07
2019-02-08T14:01:11.055Z,1.57
2019-02-08T14:03:53.567Z,2.10
2019-02-08T14:06:34.427Z,1.83
2019-02-08T14:09:16.623Z,1.90
2019-02-08T14:11:59.601Z,2.07
2019-02-08T14:14:40.300Z,1.63
2019-02-08T14:17:20.840Z,1.43
2019-02-08T14:20:01.637Z,1.77
2019-02-08T14:22:42.348Z,1.57
2019-02-08T14:25:25.237Z,2.10
2019-02-08T14:27:53.718Z,1.83
2019-02-08T14:30:55.822Z,1.80
2019-02-08T14:33:31.848Z,1.80
2019-02-08T14:36:19.649Z,1.90
2019-02-08T14:39:08.343Z,1.90
2019-02-08T14:41:56.135Z,1.80
2019-02-08T14:44:43.897Z,1.80
2019-02-08T14:47:46.119Z,1.77
2019-02-08T14:50:40.475Z,1.67
2019-02-08T14:53:28.234Z,1.87
2019-02-08T14:56:16.614Z,1.87
2019-02-08T14:59:04.801Z,1.80
2019-02-08T15:04:50.164Z,1.50
2019-02-08T15:07:31.013Z,2.13
2019-02-08T15:10:11.824Z,1.70
2019-02-08T15:12:53.468Z,2.10
2019-02-08T15:15:35.678Z,2.17
2019-02-08T15:18:18.744Z,1.67
2019-02-08T15:21:00.425Z,2.00
2019-02-08T15:23:42.282Z,2.40
2019-02-08T15:26:22.936Z,1.93
2019-02-08T15:29:03.671Z,2.17
2019-02-08T15:31:44.271Z,2.17
2019-02-08T15:34:28.082Z,2.40
2019-02-08T15:37:08.690Z,2.50
2019-02-08T15:39:49.707Z,2.50
2019-02-08T15:42:30.422Z,2.40
2019-02-08T15:45:10.948Z,2.60
2019-02-08T15:47:51.841Z,3.03
2019-02-08T15:50:32.482Z,2.43
2019-02-08T15:53:13.309Z,2.33
2019-02-08T15:55:54.378Z,1.77
2019-02-08T15:58:34.854Z,2.27
2019-02-08T16:01:15.483Z,2.30
2019-02-08T16:03:56.507Z,2.77
2019-02-08T16:06:38.288Z,2.30
2019-02-08T16:09:19.219Z,2.87
2019-02-08T16:12:01.218Z,3.00
2019-02-08T16:14:41.828Z,3.03
2019-02-08T16:17:22.447Z,2.90
2019-02-08T16:20:03.054Z,2.90
2019-02-08T16:22:43.548Z,4.13
2019-02-08T16:25:24.158Z,11.47
2019-02-08T16:28:04.939Z,9.03
2019-02-08T16:30:45.340Z,11.03
2019-02-08T16:33:26.072Z,6.90
2019-02-08T16:36:06.600Z,12.80
2019-02-08T16:38:47.008Z,6.03
2019-02-08T16:41:27.521Z,2.97
2019-02-08T16:44:09.405Z,2.97
2019-02-08T16:46:49.960Z,4.77
2019-02-08T16:49:30.444Z,3.73
2019-02-08T16:52:13.527Z,4.47
2019-02-08T16:54:56.930Z,5.03
2019-02-08T16:57:37.571Z,4.03
2019-02-08T17:00:18.503Z,4.47
2019-02-08T17:02:59.548Z,3.63
2019-02-08T17:05:40.415Z,3.47
2019-02-08T17:14:28.764Z,4.70
2019-02-08T17:17:09.643Z,4.90
2019-02-08T17:19:50.454Z,4.13
2019-02-08T17:22:30.886Z,3.87
2019-02-08T17:25:11.569Z,3.80
2019-02-08T17:27:55.296Z,4.10
2019-02-08T17:30:35.829Z,3.70
2019-02-08T17:36:01.068Z,3.83
2019-02-08T17:38:41.578Z,3.30
2019-02-08T17:41:22.276Z,3.17
2019-02-08T17:44:03.106Z,2.70
2019-02-08T17:46:43.415Z,2.50
2019-02-08T17:49:23.923Z,2.73
2019-02-08T17:52:05.512Z,3.00
2019-02-08T17:54:46.441Z,2.37
2019-02-08T17:57:27.566Z,2.60
2019-02-08T18:00:08.649Z,3.20
2019-02-08T18:02:49.067Z,3.67
2019-02-08T18:05:29.857Z,3.17
2019-02-08T18:08:10.572Z,3.50
2019-02-08T18:10:51.230Z,3.30
2019-02-08T18:13:31.722Z,3.63
2019-02-08T18:16:12.318Z,3.87
2019-02-08T18:18:53.454Z,4.30
2019-02-08T18:21:34.202Z,3.63
2019-02-08T18:24:14.790Z,4.40
2019-02-08T18:26:55.467Z,3.67
2019-02-08T18:29:35.951Z,3.60
2019-02-08T18:32:16.887Z,3.23
2019-02-08T18:34:57.718Z,2.97
2019-02-08T18:37:39.280Z,3.60
2019-02-08T18:40:22.493Z,3.77
2019-02-08T18:43:02.834Z,4.07
2019-02-08T18:45:43.875Z,3.50
2019-02-08T18:48:24.459Z,3.70
2019-02-08T18:51:04.818Z,3.30
2019-02-08T18:53:45.319Z,4.20
2019-02-08T18:56:26.373Z,5.20
2019-02-08T18:59:07.120Z,5.20
2019-02-08T19:01:47.339Z,5.13
2019-02-08T19:04:28.454Z,5.27
2019-02-08T19:07:09.433Z,5.87
2019-02-08T19:09:50.245Z,8.73
2019-02-08T19:12:30.999Z,8.27
2019-02-08T19:15:13.071Z,7.50
2019-02-08T19:17:54.010Z,5.97
2019-02-08T19:20:34.570Z,5.90
2019-02-08T19:23:15.245Z,6.57
2019-02-08T19:28:47.226Z,6.13
2019-02-08T19:31:27.795Z,6.00
2019-02-08T19:36:52.931Z,4.80
2019-02-08T19:39:34.278Z,5.10
2019-02-08T19:42:14.654Z,5.40
2019-02-08T19:44:55.471Z,5.10
2019-02-08T19:47:36.108Z,5.23
2019-02-08T19:50:16.822Z,5.00
2019-02-08T19:58:39.414Z,5.50
2019-02-08T20:01:19.962Z,7.00
2019-02-08T20:06:44.507Z,7.57
2019-02-08T20:09:25.055Z,10.50
2019-02-08T20:12:06.914Z,20.30
2019-02-08T20:14:50.688Z,13.03
2019-02-08T20:17:31.462Z,10.70
2019-02-08T20:20:11.968Z,9.30
2019-02-08T20:22:52.446Z,10.07
2019-02-08T20:25:33.130Z,10.90
2019-02-08T20:28:13.817Z,11.03
2019-02-08T20:30:54.186Z,11.50
2019-02-08T20:33:35.051Z,11.43
2019-02-08T20:36:15.640Z,11.47
2019-02-08T20:38:56.079Z,10.80
2019-02-08T20:41:36.758Z,10.23
2019-02-08T20:44:17.099Z,8.90
2019-02-08T20:46:57.738Z,9.07
2019-02-08T20:49:37.906Z,7.53
2019-02-08T20:52:18.726Z,6.67
2019-02-08T20:54:59.440Z,5.70
2019-02-08T20:57:41.032Z,6.63
2019-02-08T21:00:22.299Z,5.83
2019-02-08T21:05:53.912Z,6.43
2019-02-08T21:11:18.574Z,6.07
2019-02-08T21:13:59.304Z,5.10
2019-02-08T21:16:40.317Z,5.67
2019-02-08T21:19:20.710Z,6.13
2019-02-08T21:22:01.412Z,6.13
2019-02-08T21:24:41.820Z,7.77
2019-02-08T21:27:22.617Z,7.67
2019-02-08T21:30:03.247Z,7.80
2019-02-08T21:32:44.134Z,8.50
2019-02-08T21:35:24.912Z,12.30
2019-02-08T21:38:05.570Z,12.03
2019-02-08T21:40:45.866Z,7.20
2019-02-08T21:43:26.628Z,5.83
2019-02-08T21:46:07.716Z,6.17
2019-02-08T21:48:48.093Z,7.80
2019-02-08T21:54:13.844Z,6.10
2019-02-08T21:56:54.958Z,6.40
2019-02-08T21:59:37.696Z,6.50
2019-02-08T22:02:18.885Z,5.93
2019-02-08T22:04:59.305Z,6.10
2019-02-08T22:07:40.095Z,6.53
2019-02-08T22:10:20.845Z,6.53
2019-02-08T22:13:04.655Z,5.73
2019-02-08T22:15:45.643Z,6.23
2019-02-08T22:18:26.095Z,6.57
2019-02-08T22:21:07.428Z,6.00
2019-02-08T22:23:47.881Z,7.00
2019-02-08T22:26:28.743Z,7.03
2019-02-08T22:29:14.059Z,6.73
2019-02-08T22:31:52.103Z,6.87
2019-02-08T22:34:32.942Z,7.97
2019-02-08T22:37:13.626Z,7.20
2019-02-08T22:39:54.331Z,7.60
2019-02-08T22:42:35.255Z,8.17
2019-02-08T22:47:59.868Z,6.10
2019-02-08T22:53:25.607Z,5.53
2019-02-08T22:56:06.336Z,5.40
2019-02-08T23:01:43.926Z,5.10
2019-02-08T23:04:24.822Z,5.77
2019-02-08T23:07:07.478Z,5.53
2019-02-08T23:09:51.023Z,5.37
2019-02-08T23:12:31.885Z,4.60
2019-02-08T23:15:12.746Z,3.90
2019-02-08T23:17:53.551Z,4.00
2019-02-08T23:20:34.082Z,4.07
2019-02-08T23:23:14.958Z,3.43
2019-02-08T23:25:55.693Z,3.77
2019-02-08T23:28:37.782Z,5.07
2019-02-08T23:31:18.702Z,5.57
2019-02-08T23:33:59.411Z,6.90
2019-02-08T23:36:40.792Z,6.17
2019-02-08T23:42:12.334Z,3.60
2019-02-08T23:44:40.801Z,2.80
2019-02-08T23:47:28.871Z,2.40
2019-02-08T23:53:37.843Z,2.07
2019-02-08T23:59:39.122Z,1.87
